Miami, FL (33174)

12:04 AM EST on December 11, 2016 (GMT -0500)
Sweetwater | | Change Station

Elev 23 ft 25.77 °N, 80.36 °W | Updated 30 seconds ago

Overcast
Overcast
69.8 °F
Feels Like 69.8 °F
N
5.8
Wind Variable Wind from NE

Today
High -- | Low -- °F
--% Chance of Precip.
Yesterday
High -- | Low -- °F
Precip. -- in
Pressure 30.22 in
Visibility 9.0 miles
Clouds Few 1500 ft
Mostly Cloudy 2500 ft
Overcast 3600 ft
Dew Point 69 °F
Humidity 96%
Rainfall 0.03 in
Snow Depth Not available.
6:58 AM 5:31 PM
Waxing Gibbous, 89% visible
METAR KMIA 110453Z 05008KT 9SM -RA FEW015 BKN025 OVC036 21/19 A3022 RMK AO2 RAE08B29 SLP234 P0002 T02060194 402220167
Pressure 30.22 in
Visibility 9.0 miles
Clouds Few 1500 ft
Mostly Cloudy 2500 ft
Overcast 3600 ft
Dew Point 69 °F
Humidity 96%
Rainfall 0.03 in
Snow Depth Not available.
6:58 AM 5:31 PM
Waxing Gibbous, 89% visible
METAR KMIA 110453Z 05008KT 9SM -RA FEW015 BKN025 OVC036 21/19 A3022 RMK AO2 RAE08B29 SLP234 P0002 T02060194 402220167

10-Day Weather Forecast

Almanac

Astronomy

Dec. 11, 2016 Rise Set
Actual Time
Civil Twilight
Nautical Twilight
Astronomical Twilight
Moon
Length of Visible Light
Length of Day
Tomorrow will be .
, % of the Moon is Illuminated

Today's Extremes

State Highs State Lows

Community

WunderPhotos

Upload Photos

1,956,705 photos uploaded!

WunderBlog® & News

Nearby

Air Quality

  Air Quality AQ Index Pollutant
Not available.

Snow Depth

Station Depth Elevation

Earthquake Activity

City Distance Mag. Time & Date
Minimum magnitude displayed is 2.5.

Coastal Water Temperatures

Place Temperature

Stations

Nearby Weather Stations

Station Location Temp. Windchill Dew Point Humidity Wind Precip. Elev Updated Type
                   

Watches & Warnings

There are currently no watches in effect.